createdAt,value
2019-05-05T00:01:59.719Z,100388.86
2019-05-05T00:04:54.654Z,100390.12
2019-05-05T00:07:30.633Z,100399.29
2019-05-05T00:10:04.574Z,100398.87
2019-05-05T00:13:08.290Z,100400.18
2019-05-05T00:16:05.046Z,100405.86
2019-05-05T00:18:37.926Z,100408.94
2019-05-05T00:21:10.717Z,100413.22
2019-05-05T00:23:45.131Z,100412.34
2019-05-05T00:26:18.255Z,100414.11
2019-05-05T00:28:51.104Z,100420.63
2019-05-05T00:31:24.353Z,100422.36
2019-05-05T00:33:57.191Z,100422.78
2019-05-05T00:36:30.179Z,100422.77
2019-05-05T00:39:04.326Z,100434.09
2019-05-05T00:41:37.531Z,100428.88
2019-05-05T00:44:10.415Z,100427.94
2019-05-05T00:47:08.051Z,100428.23
2019-05-05T00:49:46.312Z,100432.56
2019-05-05T00:52:17.828Z,100427.70
2019-05-05T00:54:50.611Z,100434.56
2019-05-05T00:57:24.315Z,100437.07
2019-05-05T00:59:57.156Z,100442.43
2019-05-05T01:02:36.692Z,100442.98
2019-05-05T01:05:26.098Z,100438.08
2019-05-05T01:07:59.018Z,100441.48
2019-05-05T01:10:32.785Z,100443.20
2019-05-05T01:13:06.990Z,100440.87
2019-05-05T01:15:40.166Z,100445.20
2019-05-05T01:18:15.103Z,100440.08
2019-05-05T01:20:49.079Z,100444.91
2019-05-05T01:23:24.288Z,100453.53
2019-05-05T01:25:56.868Z,100446.08
2019-05-05T01:28:31.109Z,100448.13
2019-05-05T01:31:07.244Z,100448.23
2019-05-05T01:33:47.025Z,100451.77
2019-05-05T01:36:19.801Z,100454.42
2019-05-05T01:38:58.834Z,100456.20
2019-05-05T01:41:38.395Z,100451.95
2019-05-05T01:44:11.240Z,100452.42
2019-05-05T01:46:44.553Z,100458.85
2019-05-05T01:49:17.422Z,100467.93
2019-05-05T01:51:50.216Z,100475.32
2019-05-05T01:54:25.018Z,100489.15
2019-05-05T01:56:58.410Z,100491.60
2019-05-05T01:59:31.246Z,100501.66
2019-05-05T02:02:04.404Z,100499.33
2019-05-05T02:04:37.576Z,100508.92
2019-05-05T02:07:10.463Z,100508.92
2019-05-05T02:09:44.834Z,100524.91
2019-05-05T02:12:17.839Z,100520.38
2019-05-05T02:14:50.616Z,100517.61
2019-05-05T02:17:24.694Z,100521.87
2019-05-05T02:19:57.668Z,100521.19
2019-05-05T02:22:30.470Z,100522.16
2019-05-05T02:25:04.229Z,100527.61
2019-05-05T02:27:37.306Z,100535.26
2019-05-05T02:30:22.270Z,100543.02
2019-05-05T02:33:02.110Z,100551.91
2019-05-05T02:35:35.384Z,100550.95
2019-05-05T02:38:08.285Z,100554.38
2019-05-05T02:40:41.405Z,100551.19
2019-05-05T02:43:15.261Z,100560.95
2019-05-05T02:46:19.390Z,100556.16
2019-05-05T02:48:55.321Z,100560.11
2019-05-05T02:51:30.841Z,100566.63
2019-05-05T02:54:05.153Z,100573.86
2019-05-05T02:56:45.661Z,100574.74
2019-05-05T02:59:30.632Z,100569.59
2019-05-05T03:02:16.763Z,100572.13
2019-05-05T03:04:49.620Z,100571.70
2019-05-05T03:07:26.371Z,100583.67
2019-05-05T03:10:03.590Z,100576.42
2019-05-05T03:12:39.466Z,100571.50
2019-05-05T03:15:22.136Z,100586.53
2019-05-05T03:17:55.024Z,100589.12
2019-05-05T03:20:27.892Z,100597.22
2019-05-05T03:23:00.704Z,100602.34
2019-05-05T03:25:33.795Z,100601.88
2019-05-05T03:28:06.686Z,100605.66
2019-05-05T03:30:39.566Z,100609.68
2019-05-05T03:33:15.683Z,100614.47
2019-05-05T03:35:47.745Z,100612.34
2019-05-05T03:38:20.753Z,100609.27
2019-05-05T03:40:55.483Z,100614.00
2019-05-05T03:43:31.718Z,100615.45
2019-05-05T03:46:07.071Z,100621.91
2019-05-05T03:48:39.964Z,100632.02
2019-05-05T03:51:18.775Z,100639.96
2019-05-05T03:53:47.865Z,100642.09
2019-05-05T03:56:20.757Z,100641.67
2019-05-05T03:58:54.221Z,100651.20
2019-05-05T04:01:44.011Z,100659.06
2019-05-05T04:04:25.120Z,100670.69
2019-05-05T04:06:58.134Z,100669.95
2019-05-05T04:09:31.005Z,100679.61
2019-05-05T04:12:04.453Z,100687.59
2019-05-05T04:14:39.345Z,100679.52
2019-05-05T04:17:39.356Z,100680.48
2019-05-05T04:20:36.696Z,100678.83
2019-05-05T04:23:09.430Z,100675.34
2019-05-05T04:25:43.895Z,100671.84
2019-05-05T04:28:16.868Z,100675.06
2019-05-05T04:30:49.632Z,100677.78
2019-05-05T04:33:23.642Z,100678.75
2019-05-05T04:35:56.615Z,100680.80
2019-05-05T04:38:29.471Z,100678.33
2019-05-05T04:41:03.497Z,100688.80
2019-05-05T04:43:36.543Z,100696.56
2019-05-05T04:46:09.426Z,100695.31
2019-05-05T04:48:56.893Z,100696.97
2019-05-05T04:51:46.640Z,100700.82
2019-05-05T04:54:24.601Z,100692.79
2019-05-05T04:56:57.389Z,100695.14
2019-05-05T04:59:30.235Z,100695.81
2019-05-05T05:02:07.726Z,100695.64
2019-05-05T05:04:48.800Z,100692.88
2019-05-05T05:07:21.735Z,100703.55
2019-05-05T05:09:54.556Z,100701.91
2019-05-05T05:12:27.433Z,100708.83
2019-05-05T05:15:00.192Z,100709.78
2019-05-05T05:17:40.970Z,100706.14
2019-05-05T05:20:14.414Z,100708.44
2019-05-05T05:22:47.212Z,100715.19
2019-05-05T05:25:19.978Z,100719.95
2019-05-05T05:27:53.640Z,100724.52
2019-05-05T05:30:26.521Z,100726.66
2019-05-05T05:32:59.295Z,100733.64
2019-05-05T05:35:33.582Z,100732.63
2019-05-05T05:38:07.689Z,100734.57
2019-05-05T05:40:48.921Z,100741.16
2019-05-05T05:43:27.934Z,100736.80
2019-05-05T05:46:08.052Z,100740.19
2019-05-05T05:48:50.604Z,100741.23
2019-05-05T05:51:23.889Z,100740.78
2019-05-05T05:53:56.747Z,100749.43
2019-05-05T05:56:29.538Z,100764.65
2019-05-05T05:59:03.665Z,100761.44
2019-05-05T06:01:36.664Z,100762.93
2019-05-05T06:04:09.497Z,100770.23
2019-05-05T06:06:43.884Z,100774.77
2019-05-05T06:09:16.806Z,100774.55
2019-05-05T06:11:49.587Z,100778.91
2019-05-05T06:14:22.357Z,100775.01
2019-05-05T06:16:55.128Z,100779.53
2019-05-05T06:19:27.886Z,100778.60
2019-05-05T06:22:00.654Z,100779.38
2019-05-05T06:24:34.624Z,100783.50
2019-05-05T06:27:07.817Z,100779.60
2019-05-05T06:29:40.545Z,100783.74
2019-05-05T06:32:14.654Z,100784.77
2019-05-05T06:34:47.667Z,100792.45
2019-05-05T06:37:20.461Z,100790.64
2019-05-05T06:39:55.494Z,100788.80
2019-05-05T06:42:37.718Z,100795.78
2019-05-05T06:45:19.513Z,100792.85
2019-05-05T06:47:53.750Z,100793.35
2019-05-05T06:50:26.639Z,100798.78
2019-05-05T06:52:59.398Z,100801.97
2019-05-05T06:55:34.056Z,100808.16
2019-05-05T06:58:07.319Z,100808.31
2019-05-05T07:00:40.147Z,100802.45
2019-05-05T07:03:13.942Z,100802.45
2019-05-05T07:05:46.887Z,100809.73
2019-05-05T07:08:19.729Z,100814.00
2019-05-05T07:10:54.888Z,100808.91
2019-05-05T07:13:27.754Z,100819.30
2019-05-05T07:16:00.617Z,100821.28
2019-05-05T07:18:34.239Z,100825.89
2019-05-05T07:21:07.248Z,100823.44
2019-05-05T07:23:40.162Z,100833.17
2019-05-05T07:26:14.402Z,100839.83
2019-05-05T07:28:47.535Z,100833.02
2019-05-05T07:31:20.512Z,100839.09
2019-05-05T07:33:54.417Z,100842.68
2019-05-05T07:36:45.809Z,100846.66
2019-05-05T07:39:18.724Z,100851.25
2019-05-05T07:41:51.598Z,100848.16
2019-05-05T07:44:29.431Z,100847.53
2019-05-05T07:46:59.175Z,100844.31
2019-05-05T07:49:33.612Z,100846.53
2019-05-05T07:52:07.398Z,100833.98
2019-05-05T07:54:40.543Z,100848.62
2019-05-05T07:57:14.624Z,100855.70
2019-05-05T07:59:47.616Z,100851.74
2019-05-05T08:02:20.593Z,100853.50
2019-05-05T08:04:54.602Z,100853.73
2019-05-05T08:07:27.643Z,100847.97
2019-05-05T08:10:00.500Z,100858.13
2019-05-05T08:12:34.155Z,100858.51
2019-05-05T08:15:08.718Z,100857.69
2019-05-05T08:17:53.954Z,100856.91
2019-05-05T08:20:33.914Z,100862.06
2019-05-05T08:23:09.731Z,100865.99
2019-05-05T08:26:14.522Z,100855.91
2019-05-05T08:28:54.633Z,100865.69
2019-05-05T08:32:01.578Z,100868.87
2019-05-05T08:34:34.443Z,100867.10
2019-05-05T08:37:07.324Z,100864.45
2019-05-05T08:39:40.374Z,100859.17
2019-05-05T08:42:14.479Z,100861.66
2019-05-05T08:44:47.508Z,100870.81
2019-05-05T08:47:20.313Z,100871.80
2019-05-05T08:49:53.743Z,100869.61
2019-05-05T08:52:26.807Z,100869.61
2019-05-05T08:55:00.801Z,100867.87
2019-05-05T08:57:34.147Z,100874.07
2019-05-05T09:00:07.567Z,100874.16
2019-05-05T09:02:40.494Z,100866.23
2019-05-05T09:05:14.429Z,100880.34
2019-05-05T09:07:47.581Z,100875.97
2019-05-05T09:10:20.622Z,100878.98
2019-05-05T09:12:54.659Z,100872.78
2019-05-05T09:15:27.573Z,100870.13
2019-05-05T09:18:00.461Z,100867.55
2019-05-05T09:20:34.755Z,100871.47
2019-05-05T09:23:08.295Z,100877.18
2019-05-05T09:26:08.198Z,100869.20
2019-05-05T09:28:48.698Z,100871.84
2019-05-05T09:31:23.864Z,100883.27
2019-05-05T09:36:30.589Z,100896.92
2019-05-05T09:39:04.392Z,100892.05
2019-05-05T09:41:37.720Z,100893.38
2019-05-05T09:44:10.888Z,100901.34
2019-05-05T09:46:44.633Z,100898.28
2019-05-05T09:49:17.641Z,100893.56
2019-05-05T09:51:50.566Z,100893.50
2019-05-05T09:54:24.265Z,100886.08
2019-05-05T09:56:57.437Z,100883.46
2019-05-05T09:59:30.471Z,100884.28
2019-05-05T10:02:04.450Z,100880.30
2019-05-05T10:04:38.625Z,100888.65
2019-05-05T10:07:13.659Z,100889.17
2019-05-05T10:09:46.408Z,100897.11
2019-05-05T10:12:19.347Z,100886.55
2019-05-05T10:14:54.201Z,100884.78
2019-05-05T10:17:27.268Z,100882.14
2019-05-05T10:20:00.153Z,100881.24
2019-05-05T10:22:34.314Z,100883.89
2019-05-05T10:25:25.479Z,100884.80
2019-05-05T10:27:58.603Z,100881.70
2019-05-05T10:30:31.566Z,100889.53
2019-05-05T10:33:04.449Z,100886.96
2019-05-05T10:35:37.404Z,100881.69
2019-05-05T10:38:10.478Z,100886.55
2019-05-05T10:40:44.692Z,100881.70
2019-05-05T10:43:17.863Z,100902.66
2019-05-05T10:45:50.855Z,100895.68
2019-05-05T10:48:23.780Z,100891.39
2019-05-05T10:50:56.713Z,100882.55
2019-05-05T10:53:29.747Z,100890.50
2019-05-05T10:56:04.407Z,100886.95
2019-05-05T10:58:37.561Z,100881.61
2019-05-05T11:01:10.579Z,100882.94
2019-05-05T11:03:44.689Z,100881.23
2019-05-05T11:06:18.087Z,100890.08
2019-05-05T11:08:51.237Z,100885.67
2019-05-05T11:11:24.032Z,100890.06
2019-05-05T11:13:57.389Z,100887.41
2019-05-05T11:16:30.264Z,100887.33
2019-05-05T11:19:04.310Z,100891.66
2019-05-05T11:21:37.512Z,100886.38
2019-05-05T11:24:10.684Z,100888.69
2019-05-05T11:26:44.596Z,100886.05
2019-05-05T11:29:18.116Z,100890.05
2019-05-05T11:31:51.044Z,100893.12
2019-05-05T11:34:27.384Z,100891.28
2019-05-05T11:37:08.703Z,100895.27
2019-05-05T11:39:41.599Z,100890.31
2019-05-05T11:42:14.733Z,100888.83
2019-05-05T11:44:47.690Z,100889.16
2019-05-05T11:47:20.573Z,100897.28
2019-05-05T11:49:56.229Z,100891.17
2019-05-05T11:52:28.102Z,100897.84
2019-05-05T11:55:11.253Z,100896.19
2019-05-05T11:57:35.535Z,100889.97
2019-05-05T12:00:08.904Z,100905.82
2019-05-05T12:02:43.854Z,100899.29
2019-05-05T12:05:16.673Z,100903.70
2019-05-05T12:07:49.557Z,100905.03
2019-05-05T12:10:39.847Z,100901.79
2019-05-05T12:13:16.085Z,100906.95
2019-05-05T12:15:53.812Z,100900.95
2019-05-05T12:18:34.253Z,100901.09
2019-05-05T12:21:08.140Z,100900.38
2019-05-05T12:23:41.181Z,100896.23
2019-05-05T12:26:31.728Z,100889.61
2019-05-05T12:29:10.341Z,100892.61
2019-05-05T12:31:48.326Z,100893.98
2019-05-05T12:34:21.230Z,100891.94
2019-05-05T12:36:54.221Z,100885.89
2019-05-05T12:39:27.227Z,100888.64
2019-05-05T12:42:00.517Z,100889.38
2019-05-05T12:44:41.698Z,100890.80
2019-05-05T12:47:34.123Z,100891.28
2019-05-05T12:50:06.865Z,100888.25
2019-05-05T12:52:39.709Z,100893.56
2019-05-05T12:55:14.295Z,100890.48
2019-05-05T12:57:47.321Z,100896.23
2019-05-05T13:00:21.706Z,100890.95
2019-05-05T13:02:54.613Z,100892.27
2019-05-05T13:05:27.612Z,100889.61
2019-05-05T13:08:00.535Z,100889.64
2019-05-05T13:10:33.741Z,100890.95
2019-05-05T13:13:06.759Z,100890.94
2019-05-05T13:15:40.077Z,100886.98
2019-05-05T13:18:14.012Z,100891.80
2019-05-05T13:21:04.253Z,100889.59
2019-05-05T13:24:01.808Z,100883.45
2019-05-05T13:26:45.309Z,100881.23
2019-05-05T13:29:18.206Z,100880.79
2019-05-05T13:31:51.207Z,100874.20
2019-05-05T13:34:24.464Z,100879.49
2019-05-05T13:36:57.794Z,100885.23
2019-05-05T13:39:30.742Z,100885.66
2019-05-05T13:42:04.543Z,100883.90
2019-05-05T13:44:58.362Z,100878.61
2019-05-05T13:47:31.369Z,100873.31
2019-05-05T13:50:19.519Z,100882.13
2019-05-05T13:52:52.773Z,100875.09
2019-05-05T13:55:25.735Z,100877.31
2019-05-05T13:57:58.748Z,100879.95
2019-05-05T14:00:33.703Z,100877.75
2019-05-05T14:03:06.681Z,100874.23
2019-05-05T14:05:39.570Z,100876.41
2019-05-05T14:08:14.742Z,100872.00
2019-05-05T14:10:47.784Z,100877.75
2019-05-05T14:13:20.641Z,100876.86
2019-05-05T14:15:54.473Z,100878.61
2019-05-05T14:18:27.463Z,100874.63
2019-05-05T14:21:00.412Z,100870.66
2019-05-05T14:23:35.599Z,100875.92
2019-05-05T14:26:08.494Z,100873.27
2019-05-05T14:28:41.482Z,100864.39
2019-05-05T14:31:16.406Z,100862.65
2019-05-05T14:33:57.365Z,100861.80
2019-05-05T14:36:37.430Z,100857.38
2019-05-05T14:39:11.977Z,100860.05
2019-05-05T14:41:45.146Z,100868.42
2019-05-05T14:44:17.985Z,100861.73
2019-05-05T14:46:50.843Z,100862.97
2019-05-05T14:49:24.619Z,100864.70
2019-05-05T14:51:57.605Z,100870.82
2019-05-05T14:54:30.521Z,100858.06
2019-05-05T14:57:04.539Z,100863.01
2019-05-05T14:59:37.498Z,100867.85
2019-05-05T15:02:11.580Z,100868.34
2019-05-05T15:04:44.615Z,100866.58
2019-05-05T15:07:34.498Z,100863.54
2019-05-05T15:10:29.448Z,100862.69
2019-05-05T15:13:05.764Z,100865.79
2019-05-05T15:15:39.867Z,100862.70
2019-05-05T15:18:14.598Z,100860.09
2019-05-05T15:20:47.643Z,100857.46
2019-05-05T15:23:20.523Z,100858.78
2019-05-05T15:25:54.015Z,100858.80
2019-05-05T15:28:27.129Z,100861.02
2019-05-05T15:31:00.046Z,100864.95
2019-05-05T15:33:33.690Z,100861.88
2019-05-05T15:36:06.530Z,100863.20
2019-05-05T15:38:39.572Z,100862.33
2019-05-05T15:41:14.380Z,100863.22
2019-05-05T15:43:47.195Z,100861.91
2019-05-05T15:46:19.995Z,100863.65
2019-05-05T15:48:54.566Z,100865.39
2019-05-05T15:51:28.435Z,100863.18
2019-05-05T15:54:01.236Z,100860.10
2019-05-05T15:56:34.255Z,100863.17
2019-05-05T15:59:07.329Z,100866.69
2019-05-05T16:01:40.574Z,100859.20
2019-05-05T16:04:14.116Z,100860.99
2019-05-05T16:06:50.513Z,100869.36
2019-05-05T16:09:23.388Z,100875.98
2019-05-05T16:11:56.206Z,100873.34
2019-05-05T16:14:29.288Z,100874.23
2019-05-05T16:17:30.039Z,100874.22
2019-05-05T16:20:10.026Z,100875.55
2019-05-05T16:23:14.355Z,100873.33
2019-05-05T16:25:47.337Z,100876.85
2019-05-05T16:28:21.223Z,100872.01
2019-05-05T16:30:56.120Z,100872.90
2019-05-05T16:33:28.715Z,100868.95
2019-05-05T16:36:01.556Z,100871.13
2019-05-05T16:38:34.512Z,100873.78
2019-05-05T16:41:07.490Z,100875.11
2019-05-05T16:43:40.345Z,100875.11
2019-05-05T16:46:16.992Z,100873.34
2019-05-05T16:48:48.993Z,100878.59
2019-05-05T16:51:25.802Z,100866.73
2019-05-05T16:54:00.452Z,100876.41
2019-05-05T16:56:33.640Z,100877.73
2019-05-05T16:59:06.572Z,100872.91
2019-05-05T17:01:39.555Z,100872.47
2019-05-05T17:04:14.293Z,100868.92
2019-05-05T17:06:47.166Z,100873.77
2019-05-05T17:09:20.034Z,100868.95
2019-05-05T17:12:11.151Z,100879.50
2019-05-05T17:15:17.855Z,100875.10
2019-05-05T17:17:57.068Z,100868.94
2019-05-05T17:20:33.755Z,100874.66
2019-05-05T17:23:08.858Z,100875.53
2019-05-05T17:25:43.814Z,100879.45
2019-05-05T17:28:17.131Z,100876.81
2019-05-05T17:30:50.011Z,100882.97
2019-05-05T17:33:24.168Z,100883.84
2019-05-05T17:35:57.158Z,100886.92
2019-05-05T17:38:30.119Z,100888.69
2019-05-05T17:41:14.192Z,100896.59
2019-05-05T17:44:09.418Z,100894.82
2019-05-05T17:46:55.944Z,100900.09
2019-05-05T17:49:45.774Z,100898.77
2019-05-05T17:52:36.182Z,100905.80
2019-05-05T17:55:33.860Z,100899.66
2019-05-05T17:58:06.957Z,100899.66
2019-05-05T18:00:54.351Z,100902.70
2019-05-05T18:03:27.534Z,100895.23
2019-05-05T18:06:18.254Z,100901.73
2019-05-05T18:08:55.735Z,100912.69
2019-05-05T18:11:38.244Z,100914.39
2019-05-05T18:14:16.504Z,100917.44
2019-05-05T18:16:49.383Z,100915.17
2019-05-05T18:19:24.777Z,100915.52
2019-05-05T18:21:57.784Z,100918.55
2019-05-05T18:24:30.762Z,100915.42
2019-05-05T18:27:04.572Z,100919.33
2019-05-05T18:29:37.682Z,100924.95
2019-05-05T18:32:10.560Z,100922.73
2019-05-05T18:34:43.409Z,100923.58
2019-05-05T18:37:16.282Z,100930.55
2019-05-05T18:39:49.343Z,100935.77
2019-05-05T18:42:24.674Z,100933.05
2019-05-05T18:45:03.592Z,100932.13
2019-05-05T18:47:37.516Z,100932.93
2019-05-05T18:50:10.841Z,100935.00
2019-05-05T18:52:47.054Z,100935.81
2019-05-05T18:55:18.759Z,100935.70
2019-05-05T18:57:51.850Z,100943.06
2019-05-05T19:00:45.192Z,100942.56
2019-05-05T19:03:24.524Z,100946.00
2019-05-05T19:06:16.628Z,100951.67
2019-05-05T19:08:54.409Z,100952.06
2019-05-05T19:11:26.339Z,100955.92
2019-05-05T19:13:59.668Z,100955.41
2019-05-05T19:16:34.561Z,100955.30
2019-05-05T19:19:07.495Z,100954.36
2019-05-05T19:21:43.827Z,100954.27
2019-05-05T19:24:17.069Z,100957.70
2019-05-05T19:26:50.360Z,100962.00
2019-05-05T19:29:25.335Z,100960.20
2019-05-05T19:31:58.688Z,100961.45
2019-05-05T19:34:35.119Z,100957.89
2019-05-05T19:37:06.881Z,100962.69
2019-05-05T19:39:39.950Z,100957.34
2019-05-05T19:42:14.416Z,100964.30
2019-05-05T19:44:47.714Z,100963.76
2019-05-05T19:47:22.078Z,100956.22
2019-05-05T19:50:03.590Z,100953.52
2019-05-05T19:52:36.983Z,100951.23
2019-05-05T19:55:13.720Z,100965.58
2019-05-05T19:57:46.515Z,100961.52
2019-05-05T20:00:20.246Z,100960.03
2019-05-05T20:03:04.238Z,100962.03
2019-05-05T20:05:29.222Z,100961.46
2019-05-05T20:08:03.930Z,100966.70
2019-05-05T20:10:37.189Z,100966.18
2019-05-05T20:13:13.824Z,100963.91
2019-05-05T20:16:18.092Z,100964.58
2019-05-05T20:18:51.297Z,100962.19
2019-05-05T20:21:24.367Z,100965.66
2019-05-05T20:23:57.397Z,100970.06
2019-05-05T20:26:30.646Z,100962.19
2019-05-05T20:29:11.545Z,100959.56
2019-05-05T20:31:38.502Z,100959.53
2019-05-05T20:34:24.428Z,100959.11
2019-05-05T20:37:11.031Z,100957.30
2019-05-05T20:39:44.258Z,100962.81
2019-05-05T20:42:17.140Z,100951.36
2019-05-05T20:44:50.192Z,100960.92
2019-05-05T20:47:23.726Z,100964.34
2019-05-05T20:49:57.034Z,100961.65
2019-05-05T20:52:30.173Z,100966.43
2019-05-05T20:55:04.780Z,100964.73
2019-05-05T20:57:38.145Z,100966.85
2019-05-05T21:00:14.544Z,100964.99
2019-05-05T21:02:49.046Z,100961.79
2019-05-05T21:05:24.021Z,100964.67
2019-05-05T21:07:56.613Z,100959.30
2019-05-05T21:10:29.483Z,100956.47
2019-05-05T21:13:03.727Z,100963.31
2019-05-05T21:15:36.911Z,100969.26
2019-05-05T21:18:09.797Z,100968.19
2019-05-05T21:20:44.036Z,100965.77
2019-05-05T21:23:21.403Z,100963.38
2019-05-05T21:25:58.116Z,100967.50
2019-05-05T21:28:30.975Z,100963.75
2019-05-05T21:31:04.824Z,100965.71
2019-05-05T21:33:37.870Z,100961.12
2019-05-05T21:36:11.155Z,100968.02
2019-05-05T21:38:44.102Z,100967.41
2019-05-05T21:41:19.279Z,100966.78
2019-05-05T21:43:51.549Z,100967.57
2019-05-05T21:46:24.545Z,100969.08
2019-05-05T21:48:57.460Z,100966.80
2019-05-05T21:51:45.979Z,100965.74
2019-05-05T21:54:44.046Z,100963.88
2019-05-05T21:57:38.552Z,100968.89
2019-05-05T22:00:39.559Z,100969.45
2019-05-05T22:03:17.195Z,100967.98
2019-05-05T22:05:50.167Z,100971.73
2019-05-05T22:08:23.940Z,100967.27
2019-05-05T22:10:56.966Z,100968.06
2019-05-05T22:13:29.790Z,100973.65
2019-05-05T22:16:04.088Z,100964.44
2019-05-05T22:18:37.045Z,100970.45
2019-05-05T22:21:19.146Z,100968.50
2019-05-05T22:24:12.852Z,100968.27
2019-05-05T22:26:44.760Z,100970.27
2019-05-05T22:29:18.059Z,100966.12
2019-05-05T22:31:50.932Z,100965.94
2019-05-05T22:34:24.173Z,100966.72
2019-05-05T22:36:57.225Z,100965.70
2019-05-05T22:39:33.662Z,100967.35
2019-05-05T22:42:06.104Z,100969.86
2019-05-05T22:44:38.999Z,100964.03
2019-05-05T22:47:13.889Z,100961.37
2019-05-05T22:49:46.877Z,100965.64
2019-05-05T22:52:19.668Z,100966.53
2019-05-05T22:54:52.527Z,100965.63
2019-05-05T22:57:25.532Z,100961.18
2019-05-05T22:59:58.295Z,100961.55
2019-05-05T23:02:34.175Z,100964.57
2019-05-05T23:05:24.429Z,100963.73
2019-05-05T23:07:58.395Z,100964.57
2019-05-05T23:10:31.451Z,100963.66
2019-05-05T23:13:04.430Z,100961.10
2019-05-05T23:15:39.384Z,100955.83
2019-05-05T23:18:20.712Z,100960.52
2019-05-05T23:21:15.563Z,100957.83
2019-05-05T23:24:09.468Z,100966.08
2019-05-05T23:26:43.834Z,100957.64
2019-05-05T23:29:17.763Z,100962.75
2019-05-05T23:31:50.643Z,100963.11
2019-05-05T23:34:24.282Z,100961.31
2019-05-05T23:36:57.325Z,100963.45
2019-05-05T23:39:30.172Z,100963.45
2019-05-05T23:42:04.072Z,100965.11
2019-05-05T23:44:36.928Z,100964.20
2019-05-05T23:47:09.731Z,100959.76
2019-05-05T23:49:44.024Z,100959.70
2019-05-05T23:52:17.020Z,100965.03
2019-05-05T23:54:49.908Z,100961.84
2019-05-05T23:57:24.553Z,100956.06
2019-05-05T23:59:57.182Z,100963.28
